createdAt,value
2019-01-29T00:00:46.807Z,99.90
2019-01-29T00:03:17.253Z,99.90
2019-01-29T00:05:47.420Z,99.90
2019-01-29T00:08:17.582Z,99.90
2019-01-29T00:10:47.822Z,99.90
2019-01-29T00:13:17.910Z,99.90
2019-01-29T00:15:49.133Z,99.90
2019-01-29T00:18:19.324Z,99.90
2019-01-29T00:20:49.604Z,99.90
2019-01-29T00:23:19.775Z,99.90
2019-01-29T00:25:50.026Z,99.90
2019-01-29T00:28:20.261Z,99.90
2019-01-29T00:30:50.569Z,99.90
2019-01-29T00:33:20.703Z,99.90
2019-01-29T00:35:50.925Z,99.90
2019-01-29T00:38:22.088Z,99.90
2019-01-29T00:40:52.137Z,99.90
2019-01-29T00:43:22.268Z,99.90
2019-01-29T00:45:52.402Z,99.90
2019-01-29T00:48:22.614Z,99.90
2019-01-29T00:50:52.951Z,99.90
2019-01-29T00:53:23.038Z,99.90
2019-01-29T00:55:53.202Z,99.90
2019-01-29T00:58:23.364Z,99.90
2019-01-29T01:00:53.471Z,99.90
2019-01-29T01:03:24.627Z,99.90
2019-01-29T01:05:54.762Z,99.90
2019-01-29T01:08:25.110Z,99.90
2019-01-29T01:10:55.323Z,99.90
2019-01-29T01:13:25.535Z,99.90
2019-01-29T01:15:55.666Z,99.90
2019-01-29T01:18:26.001Z,99.90
2019-01-29T01:20:56.259Z,99.90
2019-01-29T01:23:26.399Z,99.90
2019-01-29T01:25:56.622Z,99.90
2019-01-29T01:28:26.770Z,99.90
2019-01-29T01:30:56.870Z,99.90
2019-01-29T01:33:27.160Z,99.90
2019-01-29T01:35:57.334Z,99.90
2019-01-29T01:38:27.602Z,99.90
2019-01-29T01:40:57.833Z,99.90
2019-01-29T01:43:28.045Z,99.90
2019-01-29T01:45:58.190Z,99.90
2019-01-29T01:48:28.315Z,99.90
2019-01-29T01:50:58.510Z,99.90
2019-01-29T01:53:28.616Z,99.90
2019-01-29T01:55:58.991Z,99.90
2019-01-29T01:58:29.181Z,99.90
2019-01-29T02:00:59.482Z,99.90
2019-01-29T02:03:29.754Z,99.90
2019-01-29T02:06:00.161Z,99.90
2019-01-29T02:08:30.538Z,99.90
2019-01-29T02:11:00.677Z,99.90
2019-01-29T02:13:30.899Z,99.90
2019-01-29T02:16:01.126Z,99.90
2019-01-29T02:18:31.295Z,99.90
2019-01-29T02:21:01.614Z,99.90
2019-01-29T02:23:31.822Z,99.90
2019-01-29T02:26:02.089Z,99.90
2019-01-29T02:28:32.297Z,99.90
2019-01-29T02:31:02.920Z,99.90
2019-01-29T02:33:33.092Z,99.90
2019-01-29T02:36:03.561Z,99.90
2019-01-29T02:38:33.789Z,99.90
2019-01-29T02:41:03.989Z,99.90
2019-01-29T02:43:34.119Z,99.90
2019-01-29T02:46:04.258Z,99.90
2019-01-29T02:48:34.421Z,99.90
2019-01-29T02:51:04.607Z,99.90
2019-01-29T02:53:34.787Z,99.90
2019-01-29T02:56:05.289Z,99.90
2019-01-29T02:58:35.502Z,99.90
2019-01-29T03:01:06.059Z,99.90
2019-01-29T03:03:36.241Z,99.90
2019-01-29T03:06:06.915Z,99.90
2019-01-29T03:08:37.080Z,99.90
2019-01-29T03:11:07.268Z,99.90
2019-01-29T03:13:37.435Z,99.90
2019-01-29T03:16:07.662Z,99.90
2019-01-29T03:18:37.823Z,99.90
2019-01-29T03:21:07.969Z,99.90
2019-01-29T03:23:38.082Z,99.90
2019-01-29T03:26:08.324Z,99.90
2019-01-29T03:28:38.474Z,99.90
2019-01-29T03:31:08.643Z,99.90
2019-01-29T03:33:38.828Z,99.90
2019-01-29T03:36:09.063Z,99.90
2019-01-29T03:38:39.197Z,99.90
2019-01-29T03:41:09.328Z,99.90
2019-01-29T03:43:39.461Z,99.90
2019-01-29T03:46:09.547Z,99.90
2019-01-29T03:48:39.929Z,99.90
2019-01-29T03:51:10.046Z,99.90
2019-01-29T03:53:40.215Z,99.90
2019-01-29T03:56:10.354Z,99.90
2019-01-29T03:58:40.466Z,99.90
2019-01-29T04:01:10.727Z,99.90
2019-01-29T04:03:40.891Z,99.90
2019-01-29T04:06:11.150Z,99.90
2019-01-29T04:08:41.341Z,99.90
2019-01-29T04:11:11.593Z,99.90
2019-01-29T04:13:41.823Z,99.90
2019-01-29T04:16:12.138Z,99.90
2019-01-29T04:18:42.282Z,99.90
2019-01-29T04:21:12.518Z,99.90
2019-01-29T04:23:47.745Z,99.90
2019-01-29T04:26:14.533Z,99.90
2019-01-29T04:28:44.722Z,99.90
2019-01-29T04:31:14.892Z,99.90
2019-01-29T04:33:45.182Z,99.90
2019-01-29T04:36:15.466Z,99.90
2019-01-29T04:38:45.627Z,99.90
2019-01-29T04:41:15.793Z,99.90
2019-01-29T04:43:46.001Z,99.90
2019-01-29T04:46:16.339Z,99.90
2019-01-29T04:48:46.459Z,99.90
2019-01-29T04:51:16.575Z,99.90
2019-01-29T04:53:46.749Z,99.90
2019-01-29T04:56:17.102Z,99.90
2019-01-29T04:58:47.282Z,99.90
2019-01-29T05:01:18.476Z,99.90
2019-01-29T05:03:48.739Z,99.90
2019-01-29T05:06:18.866Z,99.90
2019-01-29T05:08:49.155Z,99.90
2019-01-29T05:11:19.400Z,99.90
2019-01-29T05:13:49.660Z,99.90
2019-01-29T05:16:19.839Z,99.90
2019-01-29T05:18:50.068Z,99.90
2019-01-29T05:21:20.204Z,99.90
2019-01-29T05:23:50.423Z,99.90
2019-01-29T05:26:20.921Z,99.90
2019-01-29T05:28:51.191Z,99.90
2019-01-29T05:31:21.597Z,99.90
2019-01-29T05:33:51.726Z,99.90
2019-01-29T05:36:22.763Z,99.90
2019-01-29T05:38:53.085Z,99.90
2019-01-29T05:41:23.622Z,99.90
2019-01-29T05:43:53.871Z,99.90
2019-01-29T05:46:25.242Z,99.90
2019-01-29T05:48:55.573Z,99.90
2019-01-29T05:51:25.748Z,99.90
2019-01-29T05:53:55.937Z,99.90
2019-01-29T05:56:26.147Z,99.90
2019-01-29T05:58:56.377Z,99.90
2019-01-29T06:01:26.503Z,99.90
2019-01-29T06:03:56.711Z,99.90
2019-01-29T06:06:26.934Z,99.90
2019-01-29T06:08:57.187Z,99.90
2019-01-29T06:11:27.412Z,99.90
2019-01-29T06:13:57.615Z,99.90
2019-01-29T06:16:27.802Z,99.90
2019-01-29T06:18:58.143Z,99.90
2019-01-29T06:21:28.298Z,99.90
2019-01-29T06:23:58.531Z,99.90
2019-01-29T06:26:28.701Z,99.90
2019-01-29T06:28:59.000Z,99.90
2019-01-29T06:31:29.126Z,99.90
2019-01-29T06:33:59.461Z,99.90
2019-01-29T06:36:29.753Z,99.90
2019-01-29T06:38:59.894Z,99.90
2019-01-29T06:41:30.183Z,99.90
2019-01-29T06:44:00.298Z,99.90
2019-01-29T06:46:30.462Z,99.90
2019-01-29T06:49:00.785Z,99.90
2019-01-29T06:51:31.015Z,99.90
2019-01-29T06:54:01.198Z,99.90
2019-01-29T06:56:31.390Z,99.90
2019-01-29T06:59:01.660Z,99.90
2019-01-29T07:01:31.846Z,99.90
2019-01-29T07:04:02.067Z,99.90
2019-01-29T07:06:32.270Z,99.90
2019-01-29T07:09:02.403Z,99.90
2019-01-29T07:11:33.674Z,99.90
2019-01-29T07:14:03.777Z,99.90
2019-01-29T07:16:41.546Z,99.90
2019-01-29T07:19:22.781Z,99.90
2019-01-29T07:21:53.206Z,99.90
2019-01-29T07:24:23.409Z,99.90
2019-01-29T07:26:53.610Z,99.90
2019-01-29T07:29:23.769Z,99.90
2019-01-29T07:31:53.950Z,99.90
2019-01-29T07:34:24.164Z,99.90
2019-01-29T07:36:55.329Z,99.90
2019-01-29T07:39:25.514Z,99.90
2019-01-29T07:41:55.698Z,99.90
2019-01-29T07:44:25.787Z,99.90
2019-01-29T07:46:55.953Z,99.90
2019-01-29T07:49:26.280Z,99.90
2019-01-29T07:51:56.403Z,99.90
2019-01-29T07:54:33.171Z,99.90
2019-01-29T07:56:58.443Z,99.90
2019-01-29T07:59:33.077Z,99.90
2019-01-29T08:02:00.395Z,99.90
2019-01-29T08:04:30.557Z,99.90
2019-01-29T08:07:00.705Z,99.90
2019-01-29T08:09:31.050Z,99.90
2019-01-29T08:12:01.249Z,99.90
2019-01-29T08:14:31.444Z,99.90
2019-01-29T08:17:01.559Z,99.90
2019-01-29T08:19:31.797Z,99.90
2019-01-29T08:22:01.959Z,99.90
2019-01-29T08:24:33.580Z,99.90
2019-01-29T08:27:03.831Z,99.90
2019-01-29T08:29:34.166Z,99.90
2019-01-29T08:32:04.389Z,99.90
2019-01-29T08:34:34.541Z,99.90
2019-01-29T08:37:04.752Z,99.90
2019-01-29T08:39:35.006Z,99.90
2019-01-29T08:42:05.472Z,99.90
2019-01-29T08:44:35.626Z,99.90
2019-01-29T08:47:05.772Z,99.90
2019-01-29T08:49:36.283Z,99.90
2019-01-29T08:52:06.438Z,99.90
2019-01-29T08:54:36.597Z,99.90
2019-01-29T08:57:06.724Z,99.90
2019-01-29T08:59:36.846Z,99.90
2019-01-29T09:02:08.170Z,99.90
2019-01-29T09:04:38.558Z,99.90
2019-01-29T09:07:08.726Z,99.90
2019-01-29T09:09:38.851Z,99.90
2019-01-29T09:12:09.014Z,99.90
2019-01-29T09:14:39.146Z,99.70
2019-01-29T09:17:09.575Z,99.90
2019-01-29T09:19:39.795Z,99.90
2019-01-29T09:22:09.953Z,99.40
2019-01-29T09:24:40.293Z,99.30
2019-01-29T09:27:10.674Z,99.00
2019-01-29T09:29:40.894Z,98.80
2019-01-29T09:32:11.052Z,99.00
2019-01-29T09:34:41.322Z,99.10
2019-01-29T09:37:11.637Z,99.10
2019-01-29T09:39:42.435Z,99.10
2019-01-29T09:42:12.581Z,98.60
2019-01-29T09:44:42.829Z,98.60
2019-01-29T09:47:12.942Z,98.40
2019-01-29T09:49:43.007Z,98.30
2019-01-29T09:52:13.245Z,98.40
2019-01-29T09:54:43.458Z,98.00
2019-01-29T09:57:14.173Z,97.70
2019-01-29T09:59:44.438Z,97.60
2019-01-29T10:02:14.570Z,97.70
2019-01-29T10:04:44.750Z,97.50
2019-01-29T10:07:15.010Z,97.60
2019-01-29T10:09:45.141Z,97.40
2019-01-29T10:12:15.389Z,97.40
2019-01-29T10:14:45.762Z,97.50
2019-01-29T10:17:16.293Z,97.50
2019-01-29T10:19:46.541Z,97.60
2019-01-29T10:22:16.667Z,97.90
2019-01-29T10:24:46.754Z,97.60
2019-01-29T10:27:17.282Z,97.60
2019-01-29T10:29:47.406Z,97.60
2019-01-29T10:32:17.653Z,97.80
2019-01-29T10:34:47.830Z,97.50
2019-01-29T10:37:18.010Z,97.50
2019-01-29T10:39:48.389Z,97.30
2019-01-29T10:42:18.554Z,97.30
2019-01-29T10:44:48.773Z,97.20
2019-01-29T10:47:18.994Z,97.50
2019-01-29T10:49:49.298Z,97.40
2019-01-29T10:52:19.447Z,97.40
2019-01-29T10:54:49.629Z,97.60
2019-01-29T10:57:19.784Z,97.70
2019-01-29T10:59:49.977Z,97.70
2019-01-29T11:02:20.174Z,97.80
2019-01-29T11:04:50.366Z,97.80
2019-01-29T11:07:20.438Z,97.60
2019-01-29T11:09:50.667Z,97.60
2019-01-29T11:12:20.882Z,97.60
2019-01-29T11:14:50.998Z,97.60
2019-01-29T11:17:21.183Z,97.70
2019-01-29T11:19:51.317Z,97.60
2019-01-29T11:22:21.381Z,97.80
2019-01-29T11:24:51.526Z,97.80
2019-01-29T11:27:21.766Z,97.80
2019-01-29T11:29:51.975Z,97.90
2019-01-29T11:32:22.135Z,97.70
2019-01-29T11:34:52.267Z,97.80
2019-01-29T11:37:22.455Z,97.80
2019-01-29T11:39:52.581Z,98.00
2019-01-29T11:42:22.879Z,98.00
2019-01-29T11:44:53.030Z,98.00
2019-01-29T11:47:23.175Z,97.90
2019-01-29T11:49:53.330Z,98.20
2019-01-29T11:52:23.459Z,98.10
2019-01-29T11:54:53.753Z,98.10
2019-01-29T11:57:23.963Z,98.00
2019-01-29T11:59:54.178Z,98.10
2019-01-29T12:02:28.493Z,98.10
2019-01-29T12:04:56.222Z,98.10
2019-01-29T12:07:26.575Z,98.20
2019-01-29T12:09:56.704Z,98.10
2019-01-29T12:12:26.859Z,98.30
2019-01-29T12:14:57.058Z,98.30
2019-01-29T12:17:27.262Z,98.60
2019-01-29T12:19:57.435Z,98.50
2019-01-29T12:22:27.678Z,98.40
2019-01-29T12:24:57.730Z,98.40
2019-01-29T12:27:28.954Z,98.40
2019-01-29T12:29:59.089Z,98.40
2019-01-29T12:32:29.279Z,98.40
2019-01-29T12:34:59.486Z,98.40
2019-01-29T12:37:29.655Z,98.50
2019-01-29T12:39:59.767Z,98.60
2019-01-29T12:42:30.081Z,98.60
2019-01-29T12:45:00.265Z,98.70
2019-01-29T12:47:30.440Z,99.00
2019-01-29T12:50:00.611Z,98.90
2019-01-29T12:52:48.902Z,98.90
2019-01-29T12:55:19.281Z,98.80
2019-01-29T12:57:49.653Z,98.90
2019-01-29T13:00:20.183Z,98.90
2019-01-29T13:02:50.593Z,98.90
2019-01-29T13:05:21.189Z,98.90
2019-01-29T13:07:51.414Z,98.80
2019-01-29T13:10:22.046Z,98.70
2019-01-29T13:12:53.182Z,98.80
2019-01-29T13:15:26.502Z,98.70
2019-01-29T13:17:56.953Z,98.60
2019-01-29T13:20:27.079Z,98.40
2019-01-29T13:22:57.444Z,98.50
2019-01-29T13:25:27.577Z,98.40
2019-01-29T13:27:57.730Z,98.50
2019-01-29T13:30:32.666Z,98.40
2019-01-29T13:33:03.090Z,98.60
2019-01-29T13:35:34.838Z,98.50
2019-01-29T13:38:05.741Z,98.50
2019-01-29T13:40:36.148Z,98.60
2019-01-29T13:43:06.909Z,98.60
2019-01-29T13:45:37.190Z,98.80
2019-01-29T13:48:07.533Z,98.80
2019-01-29T13:50:40.908Z,98.80
2019-01-29T13:53:11.161Z,99.00
2019-01-29T13:55:41.543Z,98.90
2019-01-29T13:58:13.619Z,98.80
2019-01-29T14:00:43.944Z,98.80
2019-01-29T14:03:14.124Z,98.90
2019-01-29T14:05:44.281Z,98.70
2019-01-29T14:08:14.404Z,98.70
2019-01-29T14:10:44.531Z,98.70
2019-01-29T14:13:14.882Z,98.60
2019-01-29T14:15:47.460Z,98.50
2019-01-29T14:18:18.830Z,98.50
2019-01-29T14:20:49.021Z,98.30
2019-01-29T14:23:19.110Z,98.30
2019-01-29T14:25:49.382Z,98.60
2019-01-29T14:28:19.647Z,98.50
2019-01-29T14:30:49.927Z,98.60
2019-01-29T14:33:20.276Z,98.60
2019-01-29T14:35:50.427Z,98.50
2019-01-29T14:39:03.834Z,98.50
2019-01-29T14:41:35.738Z,98.60
2019-01-29T14:44:08.612Z,98.70
2019-01-29T14:46:38.729Z,98.70
2019-01-29T14:49:08.863Z,98.70
2019-01-29T14:51:39.038Z,98.80
2019-01-29T14:54:09.689Z,98.70
2019-01-29T14:56:39.809Z,98.80
2019-01-29T14:59:10.020Z,98.70
2019-01-29T15:01:41.193Z,98.80
2019-01-29T15:04:11.582Z,98.80
2019-01-29T15:06:41.801Z,98.90
2019-01-29T15:09:12.972Z,98.90
2019-01-29T15:11:43.203Z,99.10
2019-01-29T15:14:13.510Z,99.20
2019-01-29T15:17:02.830Z,99.20
2019-01-29T15:19:33.731Z,99.10
2019-01-29T15:22:04.011Z,99.10
2019-01-29T15:24:34.214Z,99.10
2019-01-29T15:27:05.991Z,99.10
2019-01-29T15:29:36.626Z,99.10
2019-01-29T15:32:06.883Z,99.20
2019-01-29T15:34:37.075Z,99.20
2019-01-29T15:37:07.260Z,99.10
2019-01-29T15:39:37.676Z,99.20
2019-01-29T15:42:07.866Z,99.20
2019-01-29T15:44:38.117Z,99.20
2019-01-29T15:47:08.276Z,99.20
2019-01-29T15:49:38.525Z,99.10
2019-01-29T15:52:08.734Z,99.20
2019-01-29T15:54:38.898Z,99.20
2019-01-29T15:57:14.022Z,99.20
2019-01-29T15:59:43.085Z,99.30
2019-01-29T16:02:12.896Z,99.40
2019-01-29T16:04:43.153Z,99.40
2019-01-29T16:07:13.329Z,99.40
2019-01-29T16:09:43.683Z,99.30
2019-01-29T16:12:13.883Z,99.30
2019-01-29T16:14:44.070Z,99.30
2019-01-29T16:17:14.254Z,99.20
2019-01-29T16:19:44.470Z,99.10
2019-01-29T16:22:14.580Z,99.10
2019-01-29T16:24:44.811Z,99.20
2019-01-29T16:27:22.614Z,99.20
2019-01-29T16:29:47.250Z,99.20
2019-01-29T16:32:17.396Z,99.40
2019-01-29T16:34:47.552Z,99.40
2019-01-29T16:37:17.749Z,99.40
2019-01-29T16:39:48.041Z,99.30
2019-01-29T16:42:18.285Z,99.30
2019-01-29T16:44:48.450Z,99.40
2019-01-29T16:47:18.667Z,99.30
2019-01-29T16:49:48.862Z,99.30
2019-01-29T16:52:18.981Z,99.20
2019-01-29T16:54:49.211Z,99.40
2019-01-29T16:57:19.447Z,99.50
2019-01-29T16:59:49.665Z,99.90
2019-01-29T17:02:19.781Z,99.60
2019-01-29T17:04:50.050Z,99.60
2019-01-29T17:07:20.521Z,99.70
2019-01-29T17:09:50.768Z,99.50
2019-01-29T17:12:21.141Z,99.90
2019-01-29T17:14:51.240Z,99.90
2019-01-29T17:17:21.510Z,99.90
2019-01-29T17:19:51.697Z,99.90
2019-01-29T17:22:21.973Z,99.90
2019-01-29T17:24:52.430Z,99.90
2019-01-29T17:27:22.513Z,99.90
2019-01-29T17:29:52.718Z,99.90
2019-01-29T17:32:30.317Z,99.90
2019-01-29T17:34:56.296Z,99.90
2019-01-29T17:37:26.494Z,99.90
2019-01-29T17:39:57.009Z,99.90
2019-01-29T17:42:27.226Z,99.90
2019-01-29T17:44:57.494Z,99.90
2019-01-29T17:47:27.679Z,99.90
2019-01-29T17:49:57.945Z,99.90
2019-01-29T17:52:28.253Z,99.90
2019-01-29T17:54:58.442Z,99.90
2019-01-29T17:57:28.625Z,99.90
2019-01-29T17:59:58.869Z,99.90
2019-01-29T18:02:29.150Z,99.90
2019-01-29T18:05:01.351Z,99.90
2019-01-29T18:07:31.633Z,99.90
2019-01-29T18:10:01.859Z,99.90
2019-01-29T18:12:32.112Z,99.90
2019-01-29T18:15:05.448Z,99.90
2019-01-29T18:17:48.684Z,99.90
2019-01-29T18:20:24.856Z,99.90
2019-01-29T18:22:55.169Z,99.90
2019-01-29T18:25:25.461Z,99.90
2019-01-29T18:28:01.430Z,99.90
2019-01-29T18:30:30.091Z,99.90
2019-01-29T18:33:00.278Z,99.90
2019-01-29T18:35:32.135Z,99.90
2019-01-29T18:38:02.299Z,99.90
2019-01-29T18:40:35.950Z,99.90
2019-01-29T18:43:06.643Z,99.90
2019-01-29T18:45:36.834Z,99.90
2019-01-29T18:48:07.085Z,99.90
2019-01-29T18:50:37.454Z,99.90
2019-01-29T18:53:07.754Z,99.90
2019-01-29T18:55:38.014Z,99.90
2019-01-29T18:58:12.033Z,99.90
2019-01-29T19:00:40.426Z,99.90
2019-01-29T19:03:10.897Z,99.90
2019-01-29T19:05:44.098Z,99.90
2019-01-29T19:08:14.527Z,99.90
2019-01-29T19:10:47.140Z,99.90
2019-01-29T19:13:17.432Z,99.90
2019-01-29T19:15:47.656Z,99.90
2019-01-29T19:18:17.978Z,99.90
2019-01-29T19:20:48.158Z,99.90
2019-01-29T19:23:18.489Z,99.90
2019-01-29T19:25:48.750Z,99.90
2019-01-29T19:28:22.281Z,99.90
2019-01-29T19:30:52.822Z,99.90
2019-01-29T19:33:23.079Z,99.90
2019-01-29T19:35:53.310Z,99.90
2019-01-29T19:38:23.586Z,99.90
2019-01-29T19:40:54.058Z,99.90
2019-01-29T19:43:24.417Z,99.90
2019-01-29T19:45:54.777Z,99.90
2019-01-29T19:48:25.259Z,99.90
2019-01-29T19:50:55.477Z,99.90
2019-01-29T19:53:25.854Z,99.90
2019-01-29T19:55:56.058Z,99.90
2019-01-29T19:58:32.299Z,99.90
2019-01-29T20:00:58.330Z,99.90
2019-01-29T20:03:28.712Z,99.90
2019-01-29T20:05:58.940Z,99.90
2019-01-29T20:08:29.386Z,99.90
2019-01-29T20:10:59.553Z,99.90
2019-01-29T20:13:29.927Z,99.90
2019-01-29T20:16:04.769Z,99.90
2019-01-29T20:18:35.052Z,99.90
2019-01-29T20:21:05.267Z,99.90
2019-01-29T20:23:35.740Z,99.90
2019-01-29T20:26:06.256Z,99.90
2019-01-29T20:28:42.451Z,99.90
2019-01-29T20:31:08.720Z,99.90
2019-01-29T20:33:40.801Z,99.90
2019-01-29T20:36:11.230Z,99.90
2019-01-29T20:38:41.556Z,99.90
2019-01-29T20:41:11.934Z,99.90
2019-01-29T20:43:43.161Z,99.90
2019-01-29T20:46:13.434Z,99.90
2019-01-29T20:48:43.934Z,99.90
2019-01-29T20:51:14.226Z,99.90
2019-01-29T20:53:44.414Z,99.90
2019-01-29T20:56:14.635Z,99.90
2019-01-29T20:58:52.472Z,99.90
2019-01-29T21:01:16.870Z,99.90
2019-01-29T21:03:47.247Z,99.90
2019-01-29T21:06:17.454Z,99.90
2019-01-29T21:08:47.780Z,99.90
2019-01-29T21:11:18.159Z,99.90
2019-01-29T21:13:48.487Z,99.90
2019-01-29T21:16:19.555Z,99.90
2019-01-29T21:18:49.844Z,99.90
2019-01-29T21:21:20.074Z,99.90
2019-01-29T21:23:50.345Z,99.90
2019-01-29T21:26:20.620Z,99.90
2019-01-29T21:28:51.014Z,99.90
2019-01-29T21:31:21.334Z,99.90
2019-01-29T21:33:51.562Z,99.90
2019-01-29T21:36:21.841Z,99.90
2019-01-29T21:38:52.106Z,99.90
2019-01-29T21:41:22.389Z,99.90
2019-01-29T21:43:52.573Z,99.90
2019-01-29T21:46:22.762Z,99.90
2019-01-29T21:48:52.982Z,99.90
2019-01-29T21:51:23.128Z,99.90
2019-01-29T21:53:53.548Z,99.90
2019-01-29T21:56:23.815Z,99.90
2019-01-29T21:58:54.881Z,99.90
2019-01-29T22:01:25.084Z,99.90
2019-01-29T22:03:55.342Z,99.80
2019-01-29T22:06:25.602Z,99.80
2019-01-29T22:08:55.927Z,99.80
2019-01-29T22:11:26.196Z,99.70
2019-01-29T22:13:57.320Z,99.90
2019-01-29T22:16:27.530Z,99.90
2019-01-29T22:18:57.882Z,99.90
2019-01-29T22:21:28.177Z,99.70
2019-01-29T22:24:00.029Z,99.70
2019-01-29T22:26:30.279Z,99.70
2019-01-29T22:29:00.455Z,99.90
2019-01-29T22:31:33.987Z,99.70
2019-01-29T22:34:04.676Z,99.70
2019-01-29T22:36:35.107Z,99.70
2019-01-29T22:39:09.452Z,99.80
2019-01-29T22:41:40.462Z,99.70
2019-01-29T22:44:10.650Z,99.70
2019-01-29T22:46:40.815Z,99.80
2019-01-29T22:49:11.018Z,99.90
2019-01-29T22:51:41.227Z,99.80
2019-01-29T22:54:11.473Z,99.70
2019-01-29T22:56:41.736Z,99.80
2019-01-29T22:59:11.954Z,99.90
2019-01-29T23:01:43.050Z,99.80
2019-01-29T23:04:28.115Z,99.80
2019-01-29T23:07:16.243Z,99.80
2019-01-29T23:09:49.769Z,99.70
2019-01-29T23:12:20.002Z,99.70
2019-01-29T23:14:50.317Z,99.80
2019-01-29T23:17:20.425Z,99.80
2019-01-29T23:19:56.393Z,99.90
2019-01-29T23:22:26.575Z,99.90
2019-01-29T23:24:56.960Z,99.90
2019-01-29T23:27:27.286Z,99.90
2019-01-29T23:30:00.551Z,99.90
2019-01-29T23:32:30.833Z,99.90
2019-01-29T23:35:01.036Z,99.90
2019-01-29T23:37:32.341Z,99.90
2019-01-29T23:40:02.593Z,99.90
2019-01-29T23:42:33.097Z,99.90
2019-01-29T23:45:03.441Z,99.90
2019-01-29T23:47:33.562Z,99.90
2019-01-29T23:50:04.084Z,99.90
2019-01-29T23:52:34.396Z,99.90
2019-01-29T23:55:05.274Z,99.90
2019-01-29T23:57:35.530Z,99.90
